sensor_id;sensor_type;location;lat;lon;timestamp;temperature;humidity
76967;DHT22;65904;52.278;20.972;2023-04-25T00:02:29;12.50;99.90
76967;DHT22;65904;52.278;20.972;2023-04-25T00:05:17;12.50;99.90
76967;DHT22;65904;52.278;20.972;2023-04-25T00:08:04;12.50;99.90
76967;DHT22;65904;52.278;20.972;2023-04-25T00:10:50;12.50;99.90
76967;DHT22;65904;52.278;20.972;2023-04-25T00:13:38;12.50;99.90
76967;DHT22;65904;52.278;20.972;2023-04-25T00:16:26;12.50;99.90
76967;DHT22;65904;52.278;20.972;2023-04-25T00:19:13;12.40;99.90
76967;DHT22;65904;52.278;20.972;2023-04-25T00:22:00;12.50;99.90
76967;DHT22;65904;52.278;20.972;2023-04-25T00:24:47;12.40;99.90
76967;DHT22;65904;52.278;20.972;2023-04-25T00:27:33;12.40;99.90
76967;DHT22;65904;52.278;20.972;2023-04-25T00:30:20;12.40;99.90
76967;DHT22;65904;52.278;20.972;2023-04-25T00:33:07;12.30;99.90
76967;DHT22;65904;52.278;20.972;2023-04-25T00:35:54;12.40;99.90
76967;DHT22;65904;52.278;20.972;2023-04-25T00:38:40;12.40;99.90
76967;DHT22;65904;52.278;20.972;2023-04-25T00:41:26;12.30;99.90
76967;DHT22;65904;52.278;20.972;2023-04-25T00:44:12;12.30;99.90
76967;DHT22;65904;52.278;20.972;2023-04-25T00:47:01;12.30;99.90
76967;DHT22;65904;52.278;20.972;2023-04-25T00:49:48;12.20;99.90
76967;DHT22;65904;52.278;20.972;2023-04-25T00:52:34;12.20;99.90
76967;DHT22;65904;52.278;20.972;2023-04-25T00:55:21;12.20;99.90
76967;DHT22;65904;52.278;20.972;2023-04-25T00:58:07;12.10;99.90
76967;DHT22;65904;52.278;20.972;2023-04-25T01:00:53;12.10;99.90
76967;DHT22;65904;52.278;20.972;2023-04-25T01:03:41;12.10;99.90
76967;DHT22;65904;52.278;20.972;2023-04-25T01:06:27;12.10;99.90
76967;DHT22;65904;52.278;20.972;2023-04-25T01:09:14;12.10;99.90
76967;DHT22;65904;52.278;20.972;2023-04-25T01:12:00;12.00;99.90
76967;DHT22;65904;52.278;20.972;2023-04-25T01:14:47;12.00;99.90
76967;DHT22;65904;52.278;20.972;2023-04-25T01:17:34;12.00;99.90
76967;DHT22;65904;52.278;20.972;2023-04-25T01:20:22;12.00;99.90
76967;DHT22;65904;52.278;20.972;2023-04-25T01:23:11;12.00;99.90
76967;DHT22;65904;52.278;20.972;2023-04-25T01:25:57;12.00;99.90
76967;DHT22;65904;52.278;20.972;2023-04-25T01:28:44;11.90;99.90
76967;DHT22;65904;52.278;20.972;2023-04-25T01:31:32;11.90;99.90
76967;DHT22;65904;52.278;20.972;2023-04-25T01:34:18;11.80;99.90
76967;DHT22;65904;52.278;20.972;2023-04-25T01:37:05;11.80;99.90
76967;DHT22;65904;52.278;20.972;2023-04-25T01:39:52;11.70;99.90
76967;DHT22;65904;52.278;20.972;2023-04-25T01:42:42;11.70;99.90
76967;DHT22;65904;52.278;20.972;2023-04-25T01:45:28;11.60;99.90
76967;DHT22;65904;52.278;20.972;2023-04-25T01:48:14;11.70;99.90
76967;DHT22;65904;52.278;20.972;2023-04-25T01:51:02;11.60;99.90
76967;DHT22;65904;52.278;20.972;2023-04-25T01:53:48;11.60;99.90
76967;DHT22;65904;52.278;20.972;2023-04-25T01:56:38;11.60;99.90
76967;DHT22;65904;52.278;20.972;2023-04-25T01:59:27;11.50;99.90
76967;DHT22;65904;52.278;20.972;2023-04-25T02:02:33;11.50;99.90
76967;DHT22;65904;52.278;20.972;2023-04-25T02:05:20;11.50;99.90
76967;DHT22;65904;52.278;20.972;2023-04-25T02:08:08;11.50;99.90
76967;DHT22;65904;52.278;20.972;2023-04-25T02:10:54;11.40;99.90
76967;DHT22;65904;52.278;20.972;2023-04-25T02:13:43;11.40;99.90
76967;DHT22;65904;52.278;20.972;2023-04-25T02:16:41;11.50;99.90
76967;DHT22;65904;52.278;20.972;2023-04-25T02:19:28;11.50;99.90
76967;DHT22;65904;52.278;20.972;2023-04-25T02:22:14;11.50;99.90
76967;DHT22;65904;52.278;20.972;2023-04-25T02:25:01;11.50;99.90
76967;DHT22;65904;52.278;20.972;2023-04-25T02:27:47;11.50;99.90
76967;DHT22;65904;52.278;20.972;2023-04-25T02:30:35;11.40;99.90
76967;DHT22;65904;52.278;20.972;2023-04-25T02:33:23;11.40;99.90
76967;DHT22;65904;52.278;20.972;2023-04-25T02:36:09;11.40;99.90
76967;DHT22;65904;52.278;20.972;2023-04-25T02:38:56;11.30;99.90
76967;DHT22;65904;52.278;20.972;2023-04-25T02:41:42;11.30;99.90
76967;DHT22;65904;52.278;20.972;2023-04-25T02:44:28;11.20;99.90
76967;DHT22;65904;52.278;20.972;2023-04-25T02:47:16;11.20;99.90
76967;DHT22;65904;52.278;20.972;2023-04-25T02:50:03;11.20;99.90
76967;DHT22;65904;52.278;20.972;2023-04-25T02:52:49;11.20;99.90
76967;DHT22;65904;52.278;20.972;2023-04-25T02:55:40;11.10;99.90
76967;DHT22;65904;52.278;20.972;2023-04-25T02:58:27;11.20;99.90
76967;DHT22;65904;52.278;20.972;2023-04-25T03:01:13;11.10;99.90
76967;DHT22;65904;52.278;20.972;2023-04-25T03:04:01;11.10;99.90
76967;DHT22;65904;52.278;20.972;2023-04-25T03:06:47;11.10;99.90
76967;DHT22;65904;52.278;20.972;2023-04-25T03:09:33;11.10;99.90
76967;DHT22;65904;52.278;20.972;2023-04-25T03:12:20;11.00;99.90
76967;DHT22;65904;52.278;20.972;2023-04-25T03:15:06;11.00;99.90
76967;DHT22;65904;52.278;20.972;2023-04-25T03:17:53;11.00;99.90
76967;DHT22;65904;52.278;20.972;2023-04-25T03:20:40;11.00;99.90
76967;DHT22;65904;52.278;20.972;2023-04-25T03:23:27;11.10;99.90
76967;DHT22;65904;52.278;20.972;2023-04-25T03:26:13;11.10;99.90
76967;DHT22;65904;52.278;20.972;2023-04-25T03:29:00;11.10;99.90
76967;DHT22;65904;52.278;20.972;2023-04-25T03:31:47;11.10;99.90
76967;DHT22;65904;52.278;20.972;2023-04-25T03:34:33;11.10;99.90
76967;DHT22;65904;52.278;20.972;2023-04-25T03:37:20;11.20;99.90
76967;DHT22;65904;52.278;20.972;2023-04-25T03:40:08;11.20;99.90
76967;DHT22;65904;52.278;20.972;2023-04-25T03:43:13;11.20;99.90
76967;DHT22;65904;52.278;20.972;2023-04-25T03:46:07;11.20;99.90
76967;DHT22;65904;52.278;20.972;2023-04-25T03:48:53;11.20;99.90
76967;DHT22;65904;52.278;20.972;2023-04-25T03:51:45;11.30;99.90
76967;DHT22;65904;52.278;20.972;2023-04-25T03:54:33;11.30;99.90
76967;DHT22;65904;52.278;20.972;2023-04-25T03:57:26;11.40;99.90
76967;DHT22;65904;52.278;20.972;2023-04-25T04:00:13;11.40;99.90
76967;DHT22;65904;52.278;20.972;2023-04-25T04:02:59;11.40;99.90
76967;DHT22;65904;52.278;20.972;2023-04-25T04:05:45;11.40;99.90
76967;DHT22;65904;52.278;20.972;2023-04-25T04:08:32;11.50;99.90
76967;DHT22;65904;52.278;20.972;2023-04-25T04:11:19;11.50;99.90
76967;DHT22;65904;52.278;20.972;2023-04-25T04:14:06;11.50;99.90
76967;DHT22;65904;52.278;20.972;2023-04-25T04:16:53;11.50;99.90
76967;DHT22;65904;52.278;20.972;2023-04-25T04:19:40;11.50;99.90
76967;DHT22;65904;52.278;20.972;2023-04-25T04:22:29;11.50;99.90
76967;DHT22;65904;52.278;20.972;2023-04-25T04:25:20;11.60;99.90
76967;DHT22;65904;52.278;20.972;2023-04-25T04:28:33;11.60;99.90
76967;DHT22;65904;52.278;20.972;2023-04-25T04:31:29;11.60;99.90
76967;DHT22;65904;52.278;20.972;2023-04-25T04:34:15;11.70;99.90
76967;DHT22;65904;52.278;20.972;2023-04-25T04:37:03;11.70;99.90
76967;DHT22;65904;52.278;20.972;2023-04-25T04:39:49;11.70;99.90
76967;DHT22;65904;52.278;20.972;2023-04-25T04:42:48;11.70;99.90
76967;DHT22;65904;52.278;20.972;2023-04-25T04:45:55;11.70;99.90
76967;DHT22;65904;52.278;20.972;2023-04-25T04:48:59;11.70;99.90
76967;DHT22;65904;52.278;20.972;2023-04-25T04:52:01;11.80;99.90
76967;DHT22;65904;52.278;20.972;2023-04-25T04:55:07;11.90;99.90
76967;DHT22;65904;52.278;20.972;2023-04-25T04:58:32;11.90;99.90
76967;DHT22;65904;52.278;20.972;2023-04-25T05:01:33;11.90;99.90
76967;DHT22;65904;52.278;20.972;2023-04-25T05:04:41;11.80;99.90
76967;DHT22;65904;52.278;20.972;2023-04-25T05:07:49;11.80;99.90
76967;DHT22;65904;52.278;20.972;2023-04-25T05:10:54;11.70;99.90
76967;DHT22;65904;52.278;20.972;2023-04-25T05:14:12;11.70;99.90
76967;DHT22;65904;52.278;20.972;2023-04-25T05:17:23;11.60;99.90
76967;DHT22;65904;52.278;20.972;2023-04-25T05:20:32;11.60;99.90
76967;DHT22;65904;52.278;20.972;2023-04-25T05:23:31;11.50;99.90
76967;DHT22;65904;52.278;20.972;2023-04-25T05:26:37;11.60;99.90
76967;DHT22;65904;52.278;20.972;2023-04-25T05:29:45;11.60;99.90
76967;DHT22;65904;52.278;20.972;2023-04-25T05:33:01;11.60;99.90
76967;DHT22;65904;52.278;20.972;2023-04-25T05:35:48;11.50;99.90
76967;DHT22;65904;52.278;20.972;2023-04-25T05:38:34;11.60;99.90
76967;DHT22;65904;52.278;20.972;2023-04-25T05:41:27;11.50;99.90
76967;DHT22;65904;52.278;20.972;2023-04-25T05:44:18;11.50;99.90
76967;DHT22;65904;52.278;20.972;2023-04-25T05:47:23;11.50;99.90
76967;DHT22;65904;52.278;20.972;2023-04-25T05:50:31;11.50;99.90
76967;DHT22;65904;52.278;20.972;2023-04-25T05:53:29;11.40;99.90
76967;DHT22;65904;52.278;20.972;2023-04-25T05:56:19;11.50;99.90
76967;DHT22;65904;52.278;20.972;2023-04-25T05:59:07;11.50;99.90
76967;DHT22;65904;52.278;20.972;2023-04-25T06:01:53;11.60;99.90
76967;DHT22;65904;52.278;20.972;2023-04-25T06:04:40;11.60;99.90
76967;DHT22;65904;52.278;20.972;2023-04-25T06:07:28;11.60;99.90
76967;DHT22;65904;52.278;20.972;2023-04-25T06:10:15;11.70;99.90
76967;DHT22;65904;52.278;20.972;2023-04-25T06:13:01;11.70;99.90
76967;DHT22;65904;52.278;20.972;2023-04-25T06:15:48;11.70;99.90
76967;DHT22;65904;52.278;20.972;2023-04-25T06:18:33;11.60;99.90
76967;DHT22;65904;52.278;20.972;2023-04-25T06:21:20;11.60;99.90
76967;DHT22;65904;52.278;20.972;2023-04-25T06:24:10;11.60;99.90
76967;DHT22;65904;52.278;20.972;2023-04-25T06:26:58;11.60;99.90
76967;DHT22;65904;52.278;20.972;2023-04-25T06:29:44;11.60;99.90
76967;DHT22;65904;52.278;20.972;2023-04-25T06:32:31;11.50;99.90
76967;DHT22;65904;52.278;20.972;2023-04-25T06:35:18;11.40;99.90
76967;DHT22;65904;52.278;20.972;2023-04-25T06:38:04;11.30;99.90
76967;DHT22;65904;52.278;20.972;2023-04-25T06:40:52;11.30;99.90
76967;DHT22;65904;52.278;20.972;2023-04-25T06:43:39;11.30;99.90
76967;DHT22;65904;52.278;20.972;2023-04-25T06:46:48;11.20;99.90
76967;DHT22;65904;52.278;20.972;2023-04-25T06:49:34;11.10;99.90
76967;DHT22;65904;52.278;20.972;2023-04-25T06:52:21;11.00;99.90
76967;DHT22;65904;52.278;20.972;2023-04-25T06:55:08;11.00;99.90
76967;DHT22;65904;52.278;20.972;2023-04-25T06:58:12;11.00;99.90
76967;DHT22;65904;52.278;20.972;2023-04-25T07:01:17;11.10;99.90
76967;DHT22;65904;52.278;20.972;2023-04-25T07:04:03;11.10;99.90
76967;DHT22;65904;52.278;20.972;2023-04-25T07:06:51;11.10;99.90
76967;DHT22;65904;52.278;20.972;2023-04-25T07:09:44;11.10;99.90
76967;DHT22;65904;52.278;20.972;2023-04-25T07:12:30;11.30;99.90
76967;DHT22;65904;52.278;20.972;2023-04-25T07:15:18;11.30;99.90
76967;DHT22;65904;52.278;20.972;2023-04-25T07:18:07;11.30;99.90
76967;DHT22;65904;52.278;20.972;2023-04-25T07:20:53;11.60;99.90
76967;DHT22;65904;52.278;20.972;2023-04-25T07:23:40;11.70;99.90
76967;DHT22;65904;52.278;20.972;2023-04-25T07:26:29;11.90;99.90
76967;DHT22;65904;52.278;20.972;2023-04-25T07:29:45;12.00;99.90
76967;DHT22;65904;52.278;20.972;2023-04-25T07:32:32;12.10;99.90
76967;DHT22;65904;52.278;20.972;2023-04-25T07:35:19;12.30;99.90
76967;DHT22;65904;52.278;20.972;2023-04-25T07:38:05;12.30;99.90
76967;DHT22;65904;52.278;20.972;2023-04-25T07:40:53;12.40;99.90
76967;DHT22;65904;52.278;20.972;2023-04-25T07:43:39;12.50;99.90
76967;DHT22;65904;52.278;20.972;2023-04-25T07:46:26;12.70;99.90
76967;DHT22;65904;52.278;20.972;2023-04-25T07:49:14;12.70;99.90
76967;DHT22;65904;52.278;20.972;2023-04-25T07:52:03;12.80;99.90
76967;DHT22;65904;52.278;20.972;2023-04-25T07:54:51;12.70;99.90
76967;DHT22;65904;52.278;20.972;2023-04-25T07:57:44;12.60;99.90
76967;DHT22;65904;52.278;20.972;2023-04-25T08:00:30;12.40;99.90
76967;DHT22;65904;52.278;20.972;2023-04-25T08:03:36;12.10;99.90
76967;DHT22;65904;52.278;20.972;2023-04-25T08:06:29;11.90;99.90
76967;DHT22;65904;52.278;20.972;2023-04-25T08:09:30;11.80;99.90
76967;DHT22;65904;52.278;20.972;2023-04-25T08:12:20;11.80;99.90
76967;DHT22;65904;52.278;20.972;2023-04-25T08:15:08;11.90;99.90
76967;DHT22;65904;52.278;20.972;2023-04-25T08:17:57;12.10;99.90
76967;DHT22;65904;52.278;20.972;2023-04-25T08:20:44;12.20;99.90
76967;DHT22;65904;52.278;20.972;2023-04-25T08:23:33;12.40;99.90
76967;DHT22;65904;52.278;20.972;2023-04-25T08:26:29;12.30;99.90
76967;DHT22;65904;52.278;20.972;2023-04-25T08:29:16;12.30;99.90
76967;DHT22;65904;52.278;20.972;2023-04-25T08:32:03;12.10;99.90
76967;DHT22;65904;52.278;20.972;2023-04-25T08:34:50;11.90;99.90
76967;DHT22;65904;52.278;20.972;2023-04-25T08:37:38;11.80;99.90
76967;DHT22;65904;52.278;20.972;2023-04-25T08:40:34;11.60;99.90
76967;DHT22;65904;52.278;20.972;2023-04-25T08:43:30;11.50;99.90
76967;DHT22;65904;52.278;20.972;2023-04-25T08:46:18;11.40;99.90
76967;DHT22;65904;52.278;20.972;2023-04-25T08:49:19;11.30;99.90
76967;DHT22;65904;52.278;20.972;2023-04-25T08:52:06;11.40;99.90
76967;DHT22;65904;52.278;20.972;2023-04-25T08:54:54;11.40;99.90
76967;DHT22;65904;52.278;20.972;2023-04-25T08:57:42;11.50;99.90
76967;DHT22;65904;52.278;20.972;2023-04-25T09:00:30;11.50;99.90
76967;DHT22;65904;52.278;20.972;2023-04-25T09:03:16;11.40;99.90
76967;DHT22;65904;52.278;20.972;2023-04-25T09:06:04;11.50;99.90
76967;DHT22;65904;52.278;20.972;2023-04-25T09:08:51;11.40;99.90
76967;DHT22;65904;52.278;20.972;2023-04-25T09:11:37;11.30;99.90
76967;DHT22;65904;52.278;20.972;2023-04-25T09:14:30;11.20;99.90
76967;DHT22;65904;52.278;20.972;2023-04-25T09:17:31;11.30;99.90
76967;DHT22;65904;52.278;20.972;2023-04-25T09:20:18;11.20;99.90
76967;DHT22;65904;52.278;20.972;2023-04-25T09:23:05;11.20;99.90
76967;DHT22;65904;52.278;20.972;2023-04-25T09:25:54;11.10;99.90
76967;DHT22;65904;52.278;20.972;2023-04-25T09:28:40;11.10;99.90
76967;DHT22;65904;52.278;20.972;2023-04-25T09:31:29;11.00;99.90
76967;DHT22;65904;52.278;20.972;2023-04-25T09:34:19;10.90;99.90
76967;DHT22;65904;52.278;20.972;2023-04-25T09:37:16;10.90;99.90
76967;DHT22;65904;52.278;20.972;2023-04-25T09:40:21;10.90;99.90
76967;DHT22;65904;52.278;20.972;2023-04-25T09:43:19;11.00;99.90
76967;DHT22;65904;52.278;20.972;2023-04-25T09:46:09;10.90;99.90
76967;DHT22;65904;52.278;20.972;2023-04-25T09:49:06;10.80;99.90
76967;DHT22;65904;52.278;20.972;2023-04-25T09:52:04;10.80;99.90
76967;DHT22;65904;52.278;20.972;2023-04-25T09:54:56;10.80;99.90
76967;DHT22;65904;52.278;20.972;2023-04-25T09:57:49;10.80;99.90
76967;DHT22;65904;52.278;20.972;2023-04-25T10:00:38;10.80;99.90
76967;DHT22;65904;52.278;20.972;2023-04-25T10:03:39;10.80;99.90
76967;DHT22;65904;52.278;20.972;2023-04-25T10:06:56;10.80;99.90
76967;DHT22;65904;52.278;20.972;2023-04-25T10:09:47;10.80;99.90
76967;DHT22;65904;52.278;20.972;2023-04-25T10:12:34;10.80;99.90
76967;DHT22;65904;52.278;20.972;2023-04-25T10:15:21;10.80;99.90
76967;DHT22;65904;52.278;20.972;2023-04-25T10:18:07;10.90;99.90
76967;DHT22;65904;52.278;20.972;2023-04-25T10:20:55;10.80;99.90
76967;DHT22;65904;52.278;20.972;2023-04-25T10:23:44;10.70;99.90
76967;DHT22;65904;52.278;20.972;2023-04-25T10:26:30;10.60;99.90
76967;DHT22;65904;52.278;20.972;2023-04-25T10:29:22;10.70;99.90
76967;DHT22;65904;52.278;20.972;2023-04-25T10:32:08;10.60;99.90
76967;DHT22;65904;52.278;20.972;2023-04-25T10:34:54;10.60;99.90
76967;DHT22;65904;52.278;20.972;2023-04-25T10:37:59;10.60;99.90
76967;DHT22;65904;52.278;20.972;2023-04-25T10:41:03;10.60;99.90
76967;DHT22;65904;52.278;20.972;2023-04-25T10:43:58;10.70;99.90
76967;DHT22;65904;52.278;20.972;2023-04-25T10:46:45;10.80;99.90
76967;DHT22;65904;52.278;20.972;2023-04-25T10:49:33;10.80;99.90
76967;DHT22;65904;52.278;20.972;2023-04-25T10:52:25;10.90;99.90
76967;DHT22;65904;52.278;20.972;2023-04-25T10:55:12;11.00;99.90
76967;DHT22;65904;52.278;20.972;2023-04-25T10:58:00;11.10;99.90
76967;DHT22;65904;52.278;20.972;2023-04-25T11:00:46;11.00;99.90
76967;DHT22;65904;52.278;20.972;2023-04-25T11:03:38;11.10;99.90
76967;DHT22;65904;52.278;20.972;2023-04-25T11:06:37;11.20;99.90
76967;DHT22;65904;52.278;20.972;2023-04-25T11:09:29;11.20;99.90
76967;DHT22;65904;52.278;20.972;2023-04-25T11:12:15;11.20;99.90
76967;DHT22;65904;52.278;20.972;2023-04-25T11:15:05;11.20;99.90
76967;DHT22;65904;52.278;20.972;2023-04-25T11:17:52;11.20;99.90
76967;DHT22;65904;52.278;20.972;2023-04-25T11:20:38;11.20;99.90
76967;DHT22;65904;52.278;20.972;2023-04-25T11:23:24;11.30;99.90
76967;DHT22;65904;52.278;20.972;2023-04-25T11:26:12;11.40;99.90
76967;DHT22;65904;52.278;20.972;2023-04-25T11:28:58;11.40;99.90
76967;DHT22;65904;52.278;20.972;2023-04-25T11:31:46;11.50;99.90
76967;DHT22;65904;52.278;20.972;2023-04-25T11:34:33;11.60;99.90
76967;DHT22;65904;52.278;20.972;2023-04-25T11:37:19;11.60;99.90
76967;DHT22;65904;52.278;20.972;2023-04-25T11:40:06;11.60;99.90
76967;DHT22;65904;52.278;20.972;2023-04-25T11:42:54;11.60;99.90
76967;DHT22;65904;52.278;20.972;2023-04-25T11:45:40;11.70;99.90
76967;DHT22;65904;52.278;20.972;2023-04-25T11:48:28;11.70;99.90
76967;DHT22;65904;52.278;20.972;2023-04-25T11:51:22;11.70;99.90
76967;DHT22;65904;52.278;20.972;2023-04-25T11:54:08;11.80;99.90
76967;DHT22;65904;52.278;20.972;2023-04-25T11:56:54;11.70;99.90
76967;DHT22;65904;52.278;20.972;2023-04-25T11:59:41;11.70;99.90
76967;DHT22;65904;52.278;20.972;2023-04-25T12:02:27;11.60;99.90
76967;DHT22;65904;52.278;20.972;2023-04-25T12:05:15;11.70;99.90
76967;DHT22;65904;52.278;20.972;2023-04-25T12:08:11;11.70;99.90
76967;DHT22;65904;52.278;20.972;2023-04-25T12:10:58;11.70;99.90
76967;DHT22;65904;52.278;20.972;2023-04-25T12:13:44;11.60;99.90
76967;DHT22;65904;52.278;20.972;2023-04-25T12:16:39;11.60;99.90
76967;DHT22;65904;52.278;20.972;2023-04-25T12:19:26;11.60;99.90
76967;DHT22;65904;52.278;20.972;2023-04-25T12:22:21;11.50;99.90
76967;DHT22;65904;52.278;20.972;2023-04-25T12:25:09;11.50;99.90
76967;DHT22;65904;52.278;20.972;2023-04-25T12:28:09;11.60;99.90
76967;DHT22;65904;52.278;20.972;2023-04-25T12:30:56;11.60;99.90
76967;DHT22;65904;52.278;20.972;2023-04-25T12:33:43;11.60;99.90
76967;DHT22;65904;52.278;20.972;2023-04-25T12:36:32;11.60;99.90
76967;DHT22;65904;52.278;20.972;2023-04-25T12:39:21;11.60;99.90
76967;DHT22;65904;52.278;20.972;2023-04-25T12:42:07;11.50;99.90
76967;DHT22;65904;52.278;20.972;2023-04-25T12:44:56;11.50;99.90
76967;DHT22;65904;52.278;20.972;2023-04-25T12:47:42;11.60;99.90
76967;DHT22;65904;52.278;20.972;2023-04-25T12:50:29;11.60;99.90
76967;DHT22;65904;52.278;20.972;2023-04-25T12:53:15;11.60;99.90
76967;DHT22;65904;52.278;20.972;2023-04-25T12:56:03;11.70;99.90
76967;DHT22;65904;52.278;20.972;2023-04-25T12:58:49;11.70;99.90
76967;DHT22;65904;52.278;20.972;2023-04-25T13:01:35;11.60;99.90
76967;DHT22;65904;52.278;20.972;2023-04-25T13:04:22;11.50;99.90
76967;DHT22;65904;52.278;20.972;2023-04-25T13:07:08;11.50;99.90
76967;DHT22;65904;52.278;20.972;2023-04-25T13:09:54;11.50;99.90
76967;DHT22;65904;52.278;20.972;2023-04-25T13:12:42;11.40;99.90
76967;DHT22;65904;52.278;20.972;2023-04-25T13:15:28;11.40;99.90
76967;DHT22;65904;52.278;20.972;2023-04-25T13:18:15;11.50;99.90
76967;DHT22;65904;52.278;20.972;2023-04-25T13:21:01;11.60;99.90
76967;DHT22;65904;52.278;20.972;2023-04-25T13:23:48;11.60;99.90
76967;DHT22;65904;52.278;20.972;2023-04-25T13:26:34;11.60;99.90
76967;DHT22;65904;52.278;20.972;2023-04-25T13:29:21;11.70;99.90
76967;DHT22;65904;52.278;20.972;2023-04-25T13:32:09;11.70;99.90
76967;DHT22;65904;52.278;20.972;2023-04-25T13:34:55;11.70;99.90
76967;DHT22;65904;52.278;20.972;2023-04-25T13:37:41;11.80;99.90
76967;DHT22;65904;52.278;20.972;2023-04-25T13:40:27;11.80;99.90
76967;DHT22;65904;52.278;20.972;2023-04-25T13:43:13;11.90;99.90
76967;DHT22;65904;52.278;20.972;2023-04-25T13:46:01;11.90;99.90
76967;DHT22;65904;52.278;20.972;2023-04-25T13:48:47;11.90;99.90
76967;DHT22;65904;52.278;20.972;2023-04-25T13:51:35;11.90;99.90
76967;DHT22;65904;52.278;20.972;2023-04-25T13:54:21;11.80;99.90
76967;DHT22;65904;52.278;20.972;2023-04-25T13:57:07;11.70;99.90
76967;DHT22;65904;52.278;20.972;2023-04-25T13:59:55;11.70;99.90
76967;DHT22;65904;52.278;20.972;2023-04-25T14:02:43;11.70;99.90
76967;DHT22;65904;52.278;20.972;2023-04-25T14:05:29;11.70;99.90
76967;DHT22;65904;52.278;20.972;2023-04-25T14:08:15;11.70;99.90
76967;DHT22;65904;52.278;20.972;2023-04-25T14:11:02;11.60;99.90
76967;DHT22;65904;52.278;20.972;2023-04-25T14:13:48;11.60;99.90
76967;DHT22;65904;52.278;20.972;2023-04-25T14:16:34;11.70;99.90
76967;DHT22;65904;52.278;20.972;2023-04-25T14:19:22;11.70;99.90
76967;DHT22;65904;52.278;20.972;2023-04-25T14:22:08;11.60;99.90
76967;DHT22;65904;52.278;20.972;2023-04-25T14:24:54;11.60;99.90
76967;DHT22;65904;52.278;20.972;2023-04-25T14:27:40;11.60;99.90
76967;DHT22;65904;52.278;20.972;2023-04-25T14:30:26;11.60;99.90
76967;DHT22;65904;52.278;20.972;2023-04-25T14:33:12;11.60;99.90
76967;DHT22;65904;52.278;20.972;2023-04-25T14:36:00;11.60;99.90
76967;DHT22;65904;52.278;20.972;2023-04-25T14:38:47;11.60;99.90
76967;DHT22;65904;52.278;20.972;2023-04-25T14:41:33;11.50;99.90
76967;DHT22;65904;52.278;20.972;2023-04-25T14:44:19;11.50;99.90
76967;DHT22;65904;52.278;20.972;2023-04-25T14:47:05;11.40;99.90
76967;DHT22;65904;52.278;20.972;2023-04-25T14:49:51;11.30;99.90
76967;DHT22;65904;52.278;20.972;2023-04-25T14:52:40;11.20;99.90
76967;DHT22;65904;52.278;20.972;2023-04-25T14:55:26;11.20;99.90
76967;DHT22;65904;52.278;20.972;2023-04-25T14:58:12;11.20;99.90
76967;DHT22;65904;52.278;20.972;2023-04-25T15:00:59;11.20;99.90
76967;DHT22;65904;52.278;20.972;2023-04-25T15:03:45;11.20;99.90
76967;DHT22;65904;52.278;20.972;2023-04-25T15:06:31;11.40;99.90
76967;DHT22;65904;52.278;20.972;2023-04-25T15:09:19;11.30;99.90
76967;DHT22;65904;52.278;20.972;2023-04-25T15:12:05;11.30;99.90
76967;DHT22;65904;52.278;20.972;2023-04-25T15:14:51;11.30;99.90
76967;DHT22;65904;52.278;20.972;2023-04-25T15:17:37;11.30;99.90
76967;DHT22;65904;52.278;20.972;2023-04-25T15:20:24;11.30;99.90
76967;DHT22;65904;52.278;20.972;2023-04-25T15:23:10;11.20;99.90
76967;DHT22;65904;52.278;20.972;2023-04-25T15:25:58;11.20;99.90
76967;DHT22;65904;52.278;20.972;2023-04-25T15:28:43;11.10;99.90
76967;DHT22;65904;52.278;20.972;2023-04-25T15:31:30;11.00;99.90
76967;DHT22;65904;52.278;20.972;2023-04-25T15:34:16;10.90;99.90
76967;DHT22;65904;52.278;20.972;2023-04-25T15:37:02;11.00;99.90
76967;DHT22;65904;52.278;20.972;2023-04-25T15:39:54;11.00;99.90
76967;DHT22;65904;52.278;20.972;2023-04-25T15:42:49;10.90;99.90
76967;DHT22;65904;52.278;20.972;2023-04-25T15:45:36;10.90;99.90
76967;DHT22;65904;52.278;20.972;2023-04-25T15:48:22;11.00;99.90
76967;DHT22;65904;52.278;20.972;2023-04-25T15:51:08;10.90;99.90
76967;DHT22;65904;52.278;20.972;2023-04-25T15:53:55;10.80;99.90
76967;DHT22;65904;52.278;20.972;2023-04-25T15:56:41;10.80;99.90
76967;DHT22;65904;52.278;20.972;2023-04-25T15:59:28;10.70;99.90
76967;DHT22;65904;52.278;20.972;2023-04-25T16:02:15;10.70;99.90
76967;DHT22;65904;52.278;20.972;2023-04-25T16:05:02;10.60;99.90
76967;DHT22;65904;52.278;20.972;2023-04-25T16:07:49;10.60;99.90
76967;DHT22;65904;52.278;20.972;2023-04-25T16:10:37;10.50;99.90
76967;DHT22;65904;52.278;20.972;2023-04-25T16:13:23;10.40;99.90
76967;DHT22;65904;52.278;20.972;2023-04-25T16:16:12;10.30;99.90
76967;DHT22;65904;52.278;20.972;2023-04-25T16:18:59;10.20;99.90
76967;DHT22;65904;52.278;20.972;2023-04-25T16:21:45;10.20;99.90
76967;DHT22;65904;52.278;20.972;2023-04-25T16:24:31;10.10;99.90
76967;DHT22;65904;52.278;20.972;2023-04-25T16:27:18;10.10;99.90
76967;DHT22;65904;52.278;20.972;2023-04-25T16:30:05;10.10;99.90
76967;DHT22;65904;52.278;20.972;2023-04-25T16:32:54;10.00;99.90
76967;DHT22;65904;52.278;20.972;2023-04-25T16:35:40;9.90;99.90
76967;DHT22;65904;52.278;20.972;2023-04-25T16:38:27;9.80;99.90
76967;DHT22;65904;52.278;20.972;2023-04-25T16:41:13;9.70;99.90
76967;DHT22;65904;52.278;20.972;2023-04-25T16:44:00;9.60;99.90
76967;DHT22;65904;52.278;20.972;2023-04-25T16:46:46;9.60;99.90
76967;DHT22;65904;52.278;20.972;2023-04-25T16:49:34;9.50;99.90
76967;DHT22;65904;52.278;20.972;2023-04-25T16:52:20;9.40;99.90
76967;DHT22;65904;52.278;20.972;2023-04-25T16:55:08;9.40;99.90
76967;DHT22;65904;52.278;20.972;2023-04-25T16:57:54;9.40;99.90
76967;DHT22;65904;52.278;20.972;2023-04-25T17:00:41;9.30;99.90
76967;DHT22;65904;52.278;20.972;2023-04-25T17:03:27;9.30;99.90
76967;DHT22;65904;52.278;20.972;2023-04-25T17:06:16;9.30;99.90
76967;DHT22;65904;52.278;20.972;2023-04-25T17:09:02;9.20;99.90
76967;DHT22;65904;52.278;20.972;2023-04-25T17:11:49;9.20;99.90
76967;DHT22;65904;52.278;20.972;2023-04-25T17:14:36;9.20;99.90
76967;DHT22;65904;52.278;20.972;2023-04-25T17:17:22;9.20;99.90
76967;DHT22;65904;52.278;20.972;2023-04-25T17:20:10;9.10;99.90
76967;DHT22;65904;52.278;20.972;2023-04-25T17:22:58;9.00;99.90
76967;DHT22;65904;52.278;20.972;2023-04-25T17:25:44;9.00;99.90
76967;DHT22;65904;52.278;20.972;2023-04-25T17:28:30;8.90;99.90
76967;DHT22;65904;52.278;20.972;2023-04-25T17:31:17;8.90;99.90
76967;DHT22;65904;52.278;20.972;2023-04-25T17:34:03;8.90;99.90
76967;DHT22;65904;52.278;20.972;2023-04-25T17:36:49;8.90;99.90